Avo Tiburcio — CUMJ9 — position and weather

sailwx.info

Track history (hours):
 
Tides and Currents Weather Stations Pressure Air Temp Water Temp Dewpoint Dewpoint Depression Visibility Wind Speed Wind Dir Waves Ship Positions

Avo Tiburcio

Last reported at 2018-Jun-25 09:14 UTC. Time now 2018-Jun-25 11:53 UTC.
Position N 37°57' W 008°52'.

Length 24 m.

Type: Fishing. MMSI: 263415870.

Date/timePositionNaut miles runAvg speedWind from/ knotsBaromVisibWave heightAir tempDewpointWater temp
2018-Jun-25 09:14N 37°57' W 008°52'1 4.8
2018-Jun-25 09:01N 37°57' W 008°54'611.9
2018-Jun-25 08:30N 38°02' W 008°51'611.6
2018-Jun-25 08:01N 38°08' W 008°49'1 2.9
2018-Jun-25 07:31N 38°09' W 008°48'0 0.2
2018-Jun-25 07:00N 38°09' W 008°48'3 5.9
2018-Jun-25 06:31N 38°12' W 008°48'0 0.2
2018-Jun-25 06:01N 38°12' W 008°48'2 4.8
2018-Jun-25 05:31N 38°10' W 008°48'0 0.8
2018-Jun-25 05:01N 38°10' W 008°48'3 6.3
2018-Jun-25 04:31N 38°07' W 008°49'2 4.3
2018-Jun-25 04:01N 38°09' W 008°48'2 4.6
2018-Jun-25 03:30N 38°11' W 008°48'0 0.8
2018-Jun-25 03:01N 38°11' W 008°48'1 2.7
2018-Jun-25 02:31N 38°10' W 008°48'0 0.2
2018-Jun-25 02:00N 38°10' W 008°48'0 0.3
2018-Jun-25 01:31N 38°10' W 008°48'3 6.8
2018-Jun-25 01:01N 38°07' W 008°50'1 1.0
2018-Jun-25 00:30N 38°06' W 008°49'0 0.2
2018-Jun-25 00:01N 38°06' W 008°49'1 2.5
2018-Jun-24 23:31N 38°05' W 008°49'4 8.8
2018-Jun-24 23:01N 38°01' W 008°51'5 9.9
2018-Jun-24 22:31N 37°57' W 008°54'  
2018-Jun-22 11:55N 37°57' W 008°52'4 9.1
2018-Jun-22 11:30N 37°53' W 008°52'611.1
2018-Jun-22 11:00N 37°48' W 008°52'611.3
2018-Jun-22 10:30N 37°42' W 008°51'611.2
2018-Jun-22 10:00N 37°37' W 008°51'8 0.9
2018-Jun-22 00:26N 37°28' W 008°49'510.6
2018-Jun-22 00:00N 37°33' W 008°49'510.2
2018-Jun-21 23:30N 37°38' W 008°50'510.6
2018-Jun-21 23:00N 37°43' W 008°51'510.8
2018-Jun-21 22:30N 37°48' W 008°52'511.0
2018-Jun-21 22:00N 37°54' W 008°52'3 6.7
2018-Jun-21 21:30N 37°57' W 008°52'0 0.0
2018-Jun-21 11:33N 37°57' W 008°52'0 0.0
2018-Jun-21 11:30N 37°57' W 008°52'0 0.0
2018-Jun-21 11:00N 37°57' W 008°52'0 0.0
2018-Jun-21 10:30N 37°57' W 008°52'0 0.0
2018-Jun-21 10:00N 37°57' W 008°52'0 0.0
2018-Jun-21 09:30N 37°57' W 008°52'0 0.0
2018-Jun-21 09:00N 37°57' W 008°52'3 6.4
2018-Jun-21 08:30N 37°59' W 008°56'0 0.3
2018-Jun-21 08:00N 37°59' W 008°55'0 0.2
2018-Jun-21 07:30N 37°59' W 008°55'1 1.4
2018-Jun-21 07:00N 37°59' W 008°54'5 9.5
2018-Jun-21 06:30N 38°03' W 008°51'4 8.3
2018-Jun-21 06:00N 38°07' W 008°50'2 3.5
2018-Jun-21 05:30N 38°06' W 008°51'4 8.3
2018-Jun-21 05:00N 38°09' W 008°48'0 0.4
2018-Jun-21 04:30N 38°09' W 008°48'2 3.4
2018-Jun-21 04:00N 38°08' W 008°49'1 1.8
2018-Jun-21 03:30N 38°07' W 008°49'0 0.1
2018-Jun-21 03:00N 38°07' W 008°49'0 0.9
2018-Jun-21 02:30N 38°07' W 008°49'1 2.8
2018-Jun-21 02:00N 38°06' W 008°51'1 1.2
2018-Jun-21 01:30N 38°06' W 008°50'0 0.2
2018-Jun-21 01:00N 38°06' W 008°50'1 2.3
2018-Jun-21 00:30N 38°05' W 008°49'1 2.9
2018-Jun-21 00:00N 38°03' W 008°50'4 8.9
2018-Jun-20 23:30N 37°59' W 008°53'2 4.5
2018-Jun-20 23:00N 37°57' W 008°52'0 0.0
2018-Jun-20 22:30N 37°57' W 008°52'0 0.0
2018-Jun-20 10:26N 37°57' W 008°52'2 3.7
2018-Jun-20 10:00N 37°58' W 008°53'611.6
2018-Jun-20 09:30N 38°04' W 008°51'510.4
2018-Jun-20 09:00N 38°09' W 008°48'0 0.5
2018-Jun-20 08:30N 38°09' W 008°48'0 0.1
2018-Jun-20 08:00N 38°09' W 008°48'2 3.6
2018-Jun-20 07:31N 38°11' W 008°48'11 2.1
2018-Jun-20 02:33N 38°00' W 008°52'011.1
2018-Jun-20 02:30N 38°00' W 008°52'4 7.1
2018-Jun-20 02:01N 37°57' W 008°53'1 0.0
2018-Jun-19 09:35N 37°57' W 008°52'0 1.5
2018-Jun-19 09:30N 37°57' W 008°52'0 0.0
2018-Jun-19 09:00N 37°57' W 008°52'1 2.3
2018-Jun-19 08:30N 37°56' W 008°54'1 0.1
2018-Jun-19 02:23N 37°57' W 008°54'1 0.1
2018-Jun-18 10:01N 37°57' W 008°52'0 9.6
2018-Jun-18 09:59N 37°57' W 008°52'3 6.9
2018-Jun-18 09:30N 38°00' W 008°52'1 2.5
2018-Jun-18 09:00N 38°01' W 008°51'0 0.1
2018-Jun-18 08:30N 38°01' W 008°51'0 0.3
2018-Jun-18 08:00N 38°01' W 008°51'5 9.9
2018-Jun-18 07:30N 38°06' W 008°49'3 6.4
2018-Jun-18 07:00N 38°09' W 008°48'4 8.9
2018-Jun-18 06:30N 38°14' W 008°48'3 5.6
2018-Jun-18 06:00N 38°16' W 008°48'0 0.2
2018-Jun-18 05:30N 38°16' W 008°48'0 0.7
2018-Jun-18 05:00N 38°17' W 008°48'1 1.3
2018-Jun-18 04:30N 38°17' W 008°49'1 1.4
2018-Jun-18 04:00N 38°17' W 008°49'4 8.2
2018-Jun-18 03:30N 38°13' W 008°48'4 8.5
2018-Jun-18 03:00N 38°17' W 008°48'2 3.7
2018-Jun-18 02:30N 38°19' W 008°48'4 8.6
2018-Jun-18 02:00N 38°15' W 008°48'3 6.3
2018-Jun-18 01:30N 38°18' W 008°48'0 0.5
2018-Jun-18 01:00N 38°18' W 008°48'0 0.3
2018-Jun-18 00:30N 38°18' W 008°48'2 4.5
2018-Jun-18 00:00N 38°16' W 008°49'3 6.1
2018-Jun-17 23:30N 38°13' W 008°48'4 7.8
2018-Jun-17 23:00N 38°09' W 008°49'5 9.8
2018-Jun-17 22:30N 38°05' W 008°51'510.1
2018-Jun-17 22:00N 37°60' W 008°52'3 6.4
2018-Jun-17 21:30N 37°57' W 008°53'1 1.3
2018-Jun-17 21:00N 37°57' W 008°52'  
Track history (hours):
 
Tides and Currents Weather Stations Pressure Air Temp Water Temp Dewpoint Dewpoint Depression Visibility Wind Speed Wind Dir Waves Ship Positions

Avo Tiburcio

Last reported at 2018-Jun-25 09:14 UTC. Time now 2018-Jun-25 11:53 UTC.
Position N 37°57' W 008°52'.

Length 24 m.

Type: Fishing. MMSI: 263415870.

Date/timePositionNaut miles runAvg speedWind from/ knotsBaromVisibWave heightAir tempDewpointWater temp
2018-Jun-25 09:14N 37°57' W 008°52'1 4.8
2018-Jun-25 09:01N 37°57' W 008°54'611.9
2018-Jun-25 08:30N 38°02' W 008°51'611.6
2018-Jun-25 08:01N 38°08' W 008°49'1 2.9
2018-Jun-25 07:31N 38°09' W 008°48'0 0.2
2018-Jun-25 07:00N 38°09' W 008°48'3 5.9
2018-Jun-25 06:31N 38°12' W 008°48'0 0.2
2018-Jun-25 06:01N 38°12' W 008°48'2 4.8
2018-Jun-25 05:31N 38°10' W 008°48'0 0.8
2018-Jun-25 05:01N 38°10' W 008°48'3 6.3
2018-Jun-25 04:31N 38°07' W 008°49'2 4.3
2018-Jun-25 04:01N 38°09' W 008°48'2 4.6
2018-Jun-25 03:30N 38°11' W 008°48'0 0.8
2018-Jun-25 03:01N 38°11' W 008°48'1 2.7
2018-Jun-25 02:31N 38°10' W 008°48'0 0.2
2018-Jun-25 02:00N 38°10' W 008°48'0 0.3
2018-Jun-25 01:31N 38°10' W 008°48'3 6.8
2018-Jun-25 01:01N 38°07' W 008°50'1 1.0
2018-Jun-25 00:30N 38°06' W 008°49'0 0.2
2018-Jun-25 00:01N 38°06' W 008°49'1 2.5
2018-Jun-24 23:31N 38°05' W 008°49'4 8.8
2018-Jun-24 23:01N 38°01' W 008°51'5 9.9
2018-Jun-24 22:31N 37°57' W 008°54'  
2018-Jun-22 11:55N 37°57' W 008°52'4 9.1
2018-Jun-22 11:30N 37°53' W 008°52'611.1
2018-Jun-22 11:00N 37°48' W 008°52'611.3
2018-Jun-22 10:30N 37°42' W 008°51'611.2
2018-Jun-22 10:00N 37°37' W 008°51'8 0.9
2018-Jun-22 00:26N 37°28' W 008°49'510.6
2018-Jun-22 00:00N 37°33' W 008°49'510.2
2018-Jun-21 23:30N 37°38' W 008°50'510.6
2018-Jun-21 23:00N 37°43' W 008°51'510.8
2018-Jun-21 22:30N 37°48' W 008°52'511.0
2018-Jun-21 22:00N 37°54' W 008°52'3 6.7
2018-Jun-21 21:30N 37°57' W 008°52'0 0.0
2018-Jun-21 11:33N 37°57' W 008°52'0 0.0
2018-Jun-21 11:30N 37°57' W 008°52'0 0.0
2018-Jun-21 11:00N 37°57' W 008°52'0 0.0
2018-Jun-21 10:30N 37°57' W 008°52'0 0.0
2018-Jun-21 10:00N 37°57' W 008°52'0 0.0
2018-Jun-21 09:30N 37°57' W 008°52'0 0.0
2018-Jun-21 09:00N 37°57' W 008°52'3 6.4
2018-Jun-21 08:30N 37°59' W 008°56'0 0.3
2018-Jun-21 08:00N 37°59' W 008°55'0 0.2
2018-Jun-21 07:30N 37°59' W 008°55'1 1.4
2018-Jun-21 07:00N 37°59' W 008°54'5 9.5
2018-Jun-21 06:30N 38°03' W 008°51'4 8.3
2018-Jun-21 06:00N 38°07' W 008°50'2 3.5
2018-Jun-21 05:30N 38°06' W 008°51'4 8.3
2018-Jun-21 05:00N 38°09' W 008°48'0 0.4
2018-Jun-21 04:30N 38°09' W 008°48'2 3.4
2018-Jun-21 04:00N 38°08' W 008°49'1 1.8
2018-Jun-21 03:30N 38°07' W 008°49'0 0.1
2018-Jun-21 03:00N 38°07' W 008°49'0 0.9
2018-Jun-21 02:30N 38°07' W 008°49'1 2.8
2018-Jun-21 02:00N 38°06' W 008°51'1 1.2
2018-Jun-21 01:30N 38°06' W 008°50'0 0.2
2018-Jun-21 01:00N 38°06' W 008°50'1 2.3
2018-Jun-21 00:30N 38°05' W 008°49'1 2.9
2018-Jun-21 00:00N 38°03' W 008°50'4 8.9
2018-Jun-20 23:30N 37°59' W 008°53'2 4.5
2018-Jun-20 23:00N 37°57' W 008°52'0 0.0
2018-Jun-20 22:30N 37°57' W 008°52'0 0.0
2018-Jun-20 10:26N 37°57' W 008°52'2 3.7
2018-Jun-20 10:00N 37°58' W 008°53'611.6
2018-Jun-20 09:30N 38°04' W 008°51'510.4
2018-Jun-20 09:00N 38°09' W 008°48'0 0.5
2018-Jun-20 08:30N 38°09' W 008°48'0 0.1
2018-Jun-20 08:00N 38°09' W 008°48'2 3.6
2018-Jun-20 07:31N 38°11' W 008°48'11 2.1
2018-Jun-20 02:33N 38°00' W 008°52'011.1
2018-Jun-20 02:30N 38°00' W 008°52'4 7.1
2018-Jun-20 02:01N 37°57' W 008°53'1 0.0
2018-Jun-19 09:35N 37°57' W 008°52'0 1.5
2018-Jun-19 09:30N 37°57' W 008°52'0 0.0
2018-Jun-19 09:00N 37°57' W 008°52'1 2.3
2018-Jun-19 08:30N 37°56' W 008°54'1 0.1
2018-Jun-19 02:23N 37°57' W 008°54'1 0.1
2018-Jun-18 10:01N 37°57' W 008°52'0 9.6
2018-Jun-18 09:59N 37°57' W 008°52'3 6.9
2018-Jun-18 09:30N 38°00' W 008°52'1 2.5
2018-Jun-18 09:00N 38°01' W 008°51'0 0.1
2018-Jun-18 08:30N 38°01' W 008°51'0 0.3
2018-Jun-18 08:00N 38°01' W 008°51'5 9.9
2018-Jun-18 07:30N 38°06' W 008°49'3 6.4
2018-Jun-18 07:00N 38°09' W 008°48'4 8.9
2018-Jun-18 06:30N 38°14' W 008°48'3 5.6
2018-Jun-18 06:00N 38°16' W 008°48'0 0.2
2018-Jun-18 05:30N 38°16' W 008°48'0 0.7
2018-Jun-18 05:00N 38°17' W 008°48'1 1.3
2018-Jun-18 04:30N 38°17' W 008°49'1 1.4
2018-Jun-18 04:00N 38°17' W 008°49'4 8.2
2018-Jun-18 03:30N 38°13' W 008°48'4 8.5
2018-Jun-18 03:00N 38°17' W 008°48'2 3.7
2018-Jun-18 02:30N 38°19' W 008°48'4 8.6
2018-Jun-18 02:00N 38°15' W 008°48'3 6.3
2018-Jun-18 01:30N 38°18' W 008°48'0 0.5
2018-Jun-18 01:00N 38°18' W 008°48'0 0.3
2018-Jun-18 00:30N 38°18' W 008°48'2 4.5
2018-Jun-18 00:00N 38°16' W 008°49'3 6.1
2018-Jun-17 23:30N 38°13' W 008°48'4 7.8
2018-Jun-17 23:00N 38°09' W 008°49'5 9.8
2018-Jun-17 22:30N 38°05' W 008°51'510.1
2018-Jun-17 22:00N 37°60' W 008°52'3 6.4
2018-Jun-17 21:30N 37°57' W 008°53'1 1.3
2018-Jun-17 21:00N 37°57' W 008°52'  

Dump ship's entire track history